Decoded Metar for LFBC (CAZAUX in FRANCE) (IATA:N/A) | Meteo·Mobile Aviation Weather
aviador You're here:

LFBC Decoded Metar

CAZAUX in FRANCE
Report Time2019-09-23 09:30:00
UTC Time2019-09-23 09:45:12
Flight Rules vfr VFR
WindVRB at 03 kt
Visibility9999 m
Phenomena:N/A
Clouds:N/A
Expected CloudBase > 1,200 ft AGL from Temp-Dew spread
CeilingNone
Temp19°C (ISA +4)
Dew Point16°C (83% RH)
QNH1019 hPa
Density Alt643 ft
Elevation108 ft
Report Wrong Elevation
Raw Report
LFBC 230930Z AUTO VRB03KT CAVOK 19/16 Q1019 NOSIG=

Extra information for LFBC:More info

Metar Taf Metar & Taf Last 4 Metars F.Rules Stats Wind Profile Meteogram Temp Stats Airport Information Weather charts Add Link Nearby VenuesMetar ALERT Operation Metar Decoded Social comments